Arklow Rogue — EIGD — position and weather

sailwx.info

Track history (hours):
 
Tides and Currents Weather Stations Pressure Air Temp Water Temp Dewpoint Dewpoint Depression Visibility Wind Speed Wind Dir Waves Ship Positions

Arklow Rogue

Last reported at 2016-Aug-26 04:11 UTC. Time now 2016-Aug-26 10:17 UTC.
Position N 43°34' W 005°42'.

Length 90 m; draft 3.4 m.

Type: Cargo ship. MMSI: 250000960.

Date/timePositionNaut miles runAvg speedWind from/ knotsBaromVisibWave heightAir tempDewpointWater temp
2016-Aug-26 04:11N 43°34' W 005°42'0 0.0
2016-Aug-26 03:29N 43°34' W 005°42'0 0.0
2016-Aug-26 02:29N 43°34' W 005°42'0 0.1
2016-Aug-26 01:33N 43°34' W 005°42'9 9.0
2016-Aug-26 00:33N 43°35' W 005°30'10112.2
2016-Aug-25 16:16N 43°26' W 003°11'7 0.7
2016-Aug-25 06:30N 43°22' W 003°04'0 0.0
2016-Aug-23 19:30N 43°22' W 003°04'0 0.0
2016-Aug-23 18:30N 43°22' W 003°04'0 0.0
2016-Aug-23 17:24N 43°22' W 003°04'3 0.1
2016-Aug-22 16:33N 43°24' W 003°06'1110.6
2016-Aug-22 15:33N 43°33' W 003°14'12711.1
2016-Aug-22 04:06N 45°21' W 004°47'611.5
2016-Aug-22 03:33N 45°27' W 004°51'17510.9
2016-Aug-21 11:33N 47°55' W 007°05'24510.9
2016-Aug-20 13:10N 51°25' W 010°20'9 9.7
2016-Aug-20 12:14N 51°32' W 010°28'  
2016-Aug-17 01:33N 51°34' W 010°30'1211.6
2016-Aug-17 00:33N 51°29' W 010°13'1212.0
2016-Aug-16 23:33N 51°25' W 009°55'1212.3
2016-Aug-16 22:33N 51°21' W 009°36'1212.4
2016-Aug-16 21:33N 51°25' W 009°17'1312.5
2016-Aug-16 20:33N 51°29' W 008°58'1312.6
2016-Aug-16 19:33N 51°33' W 008°39'1212.0
2016-Aug-16 18:33N 51°40' W 008°23'1111.0
2016-Aug-16 17:33N 51°50' W 008°16'8 7.5
2016-Aug-16 16:33N 51°54' W 008°26'1 0.4
2016-Aug-16 14:23N 51°54' W 008°28'0 0.0
2016-Aug-16 13:29N 51°54' W 008°28'0 0.0
2016-Aug-16 12:11N 51°54' W 008°28'0 0.0
2016-Aug-16 10:23N 51°54' W 008°28'0 0.0
2016-Aug-16 09:17N 51°54' W 008°28'0 0.0
2016-Aug-16 08:05N 51°54' W 008°28'0 0.0
2016-Aug-16 04:29N 51°54' W 008°28'  
Track history (hours):
 
Tides and Currents Weather Stations Pressure Air Temp Water Temp Dewpoint Dewpoint Depression Visibility Wind Speed Wind Dir Waves Ship Positions

Arklow Rogue

Last reported at 2016-Aug-26 04:11 UTC. Time now 2016-Aug-26 10:17 UTC.
Position N 43°34' W 005°42'.

Length 90 m; draft 3.4 m.

Type: Cargo ship. MMSI: 250000960.

Date/timePositionNaut miles runAvg speedWind from/ knotsBaromVisibWave heightAir tempDewpointWater temp
2016-Aug-26 04:11N 43°34' W 005°42'0 0.0
2016-Aug-26 03:29N 43°34' W 005°42'0 0.0
2016-Aug-26 02:29N 43°34' W 005°42'0 0.1
2016-Aug-26 01:33N 43°34' W 005°42'9 9.0
2016-Aug-26 00:33N 43°35' W 005°30'10112.2
2016-Aug-25 16:16N 43°26' W 003°11'7 0.7
2016-Aug-25 06:30N 43°22' W 003°04'0 0.0
2016-Aug-23 19:30N 43°22' W 003°04'0 0.0
2016-Aug-23 18:30N 43°22' W 003°04'0 0.0
2016-Aug-23 17:24N 43°22' W 003°04'3 0.1
2016-Aug-22 16:33N 43°24' W 003°06'1110.6
2016-Aug-22 15:33N 43°33' W 003°14'12711.1
2016-Aug-22 04:06N 45°21' W 004°47'611.5
2016-Aug-22 03:33N 45°27' W 004°51'17510.9
2016-Aug-21 11:33N 47°55' W 007°05'24510.9
2016-Aug-20 13:10N 51°25' W 010°20'9 9.7
2016-Aug-20 12:14N 51°32' W 010°28'  
2016-Aug-17 01:33N 51°34' W 010°30'1211.6
2016-Aug-17 00:33N 51°29' W 010°13'1212.0
2016-Aug-16 23:33N 51°25' W 009°55'1212.3
2016-Aug-16 22:33N 51°21' W 009°36'1212.4
2016-Aug-16 21:33N 51°25' W 009°17'1312.5
2016-Aug-16 20:33N 51°29' W 008°58'1312.6
2016-Aug-16 19:33N 51°33' W 008°39'1212.0
2016-Aug-16 18:33N 51°40' W 008°23'1111.0
2016-Aug-16 17:33N 51°50' W 008°16'8 7.5
2016-Aug-16 16:33N 51°54' W 008°26'1 0.4
2016-Aug-16 14:23N 51°54' W 008°28'0 0.0
2016-Aug-16 13:29N 51°54' W 008°28'0 0.0
2016-Aug-16 12:11N 51°54' W 008°28'0 0.0
2016-Aug-16 10:23N 51°54' W 008°28'0 0.0
2016-Aug-16 09:17N 51°54' W 008°28'0 0.0
2016-Aug-16 08:05N 51°54' W 008°28'0 0.0
2016-Aug-16 04:29N 51°54' W 008°28'  

Dump ship's entire track history